createdAt,value
2018-01-15T00:00:19.612Z,30.05
2018-01-15T00:01:23.748Z,32.20
2018-01-15T00:02:27.990Z,30.13
2018-01-15T00:03:32.170Z,32.10
2018-01-15T00:04:36.406Z,32.30
2018-01-15T00:05:41.649Z,30.15
2018-01-15T00:06:46.510Z,26.58
2018-01-15T00:07:50.608Z,33.10
2018-01-15T00:08:54.813Z,31.15
2018-01-15T00:09:59.016Z,30.05
2018-01-15T00:11:03.203Z,31.15
2018-01-15T00:12:07.418Z,30.95
2018-01-15T00:13:11.630Z,28.90
2018-01-15T00:14:15.749Z,33.40
2018-01-15T00:15:20.184Z,30.08
2018-01-15T00:16:24.292Z,37.92
2018-01-15T00:17:28.847Z,29.90
2018-01-15T00:18:33.114Z,29.77
2018-01-15T00:19:38.132Z,28.70
2018-01-15T00:20:43.080Z,32.42
2018-01-15T00:21:47.365Z,33.38
2018-01-15T00:22:52.283Z,31.20
2018-01-15T00:23:56.777Z,29.83
2018-01-15T00:25:00.964Z,30.93
2018-01-15T00:26:05.277Z,32.17
2018-01-15T00:27:09.313Z,33.05
2018-01-15T00:28:14.430Z,32.13
2018-01-15T00:29:19.411Z,28.52
2018-01-15T00:30:24.069Z,29.77
2018-01-15T00:31:28.141Z,31.70
2018-01-15T00:32:32.660Z,33.63
2018-01-15T00:33:36.786Z,26.90
2018-01-15T00:34:40.785Z,30.25
2018-01-15T00:35:45.593Z,33.77
2018-01-15T00:36:49.630Z,28.12
2018-01-15T00:37:53.637Z,32.35
2018-01-15T00:38:57.613Z,26.48
2018-01-15T00:40:02.408Z,30.05
2018-01-15T00:41:06.412Z,28.98
2018-01-15T00:42:10.774Z,29.20
2018-01-15T00:43:14.910Z,29.60
2018-01-15T00:44:19.045Z,29.67
2018-01-15T00:45:23.338Z,28.80
2018-01-15T00:46:27.897Z,28.42
2018-01-15T00:47:32.024Z,28.58
2018-01-15T00:48:36.297Z,27.40
2018-01-15T00:49:40.355Z,34.08
2018-01-15T00:50:44.996Z,28.10
2018-01-15T00:51:49.799Z,30.73
2018-01-15T00:52:53.991Z,31.90
2018-01-15T00:53:58.138Z,34.75
2018-01-15T00:55:02.202Z,29.05
2018-01-15T00:56:06.180Z,25.83
2018-01-15T00:57:10.684Z,27.85
2018-01-15T00:58:14.677Z,33.95
2018-01-15T00:59:19.240Z,29.25
2018-01-15T01:00:24.029Z,28.95
2018-01-15T01:01:28.110Z,37.73
2018-01-15T01:02:32.069Z,76.27
2018-01-15T01:03:36.133Z,35.08
2018-01-15T01:04:40.335Z,27.42
2018-01-15T01:05:44.457Z,28.25
2018-01-15T01:06:48.665Z,30.05
2018-01-15T01:07:52.694Z,31.48
2018-01-15T01:08:56.936Z,27.03
2018-01-15T01:10:01.056Z,28.87
2018-01-15T01:11:05.069Z,31.17
2018-01-15T01:12:09.503Z,28.45
2018-01-15T01:13:13.614Z,30.65
2018-01-15T01:14:18.299Z,28.70
2018-01-15T01:15:22.874Z,28.40
2018-01-15T01:16:27.742Z,27.13
2018-01-15T01:17:32.894Z,28.67
2018-01-15T01:18:37.325Z,31.80
2018-01-15T01:19:41.931Z,27.45
2018-01-15T01:20:46.053Z,28.87
2018-01-15T01:21:50.236Z,29.80
2018-01-15T01:22:54.987Z,31.55
2018-01-15T01:23:59.248Z,30.37
2018-01-15T01:25:03.616Z,29.23
2018-01-15T01:26:07.913Z,27.15
2018-01-15T01:27:11.915Z,29.63
2018-01-15T01:28:16.134Z,29.02
2018-01-15T01:29:20.127Z,24.65
2018-01-15T01:30:24.079Z,28.50
2018-01-15T01:31:28.364Z,29.23
2018-01-15T01:32:32.309Z,30.23
2018-01-15T01:33:36.497Z,27.20
2018-01-15T01:34:40.596Z,28.17
2018-01-15T01:35:45.022Z,30.70
2018-01-15T01:36:49.061Z,27.75
2018-01-15T01:37:54.309Z,30.27
2018-01-15T01:38:59.102Z,28.77
2018-01-15T01:40:03.046Z,25.92
2018-01-15T01:41:07.049Z,28.20
2018-01-15T01:42:11.141Z,27.27
2018-01-15T01:43:15.296Z,29.00
2018-01-15T01:44:19.348Z,28.90
2018-01-15T01:45:23.673Z,26.70
2018-01-15T01:46:27.639Z,27.17
2018-01-15T01:47:32.413Z,29.52
2018-01-15T01:48:36.810Z,26.27
2018-01-15T01:49:40.782Z,30.90
2018-01-15T01:50:44.779Z,31.45
2018-01-15T01:51:49.208Z,28.50
2018-01-15T01:52:53.764Z,29.90
2018-01-15T01:53:58.019Z,26.90
2018-01-15T01:55:02.437Z,30.67
2018-01-15T01:56:07.053Z,29.35
2018-01-15T01:57:11.282Z,27.30
2018-01-15T01:58:15.619Z,27.73
2018-01-15T01:59:20.671Z,29.87
2018-01-15T02:00:24.813Z,28.55
2018-01-15T02:01:29.006Z,29.00
2018-01-15T02:02:33.297Z,26.83
2018-01-15T02:03:37.533Z,28.98
2018-01-15T02:04:42.094Z,31.63
2018-01-15T02:05:46.678Z,28.73
2018-01-15T02:06:52.222Z,32.40
2018-01-15T02:07:57.629Z,28.42
2018-01-15T02:09:01.822Z,23.65
2018-01-15T02:10:05.958Z,27.25
2018-01-15T02:11:10.356Z,29.50
2018-01-15T02:12:14.768Z,26.83
2018-01-15T02:13:19.126Z,28.35
2018-01-15T02:14:23.085Z,31.35
2018-01-15T02:15:27.068Z,27.05
2018-01-15T02:16:31.141Z,28.05
2018-01-15T02:17:35.152Z,33.72
2018-01-15T02:18:39.253Z,28.65
2018-01-15T02:19:43.292Z,27.73
2018-01-15T02:20:48.353Z,28.75
2018-01-15T02:21:52.831Z,27.50
2018-01-15T02:22:57.136Z,30.05
2018-01-15T02:24:01.508Z,26.05
2018-01-15T02:25:06.019Z,25.08
2018-01-15T02:26:10.279Z,28.48
2018-01-15T02:27:14.678Z,27.25
2018-01-15T02:28:19.338Z,25.25
2018-01-15T02:29:23.965Z,25.25
2018-01-15T02:30:28.667Z,26.23
2018-01-15T02:31:33.387Z,31.85
2018-01-15T02:32:37.666Z,26.75
2018-01-15T02:33:41.768Z,34.33
2018-01-15T02:34:45.908Z,28.75
2018-01-15T02:35:50.107Z,29.92
2018-01-15T02:36:54.311Z,26.55
2018-01-15T02:37:58.626Z,30.05
2018-01-15T02:39:02.676Z,29.87
2018-01-15T02:40:07.177Z,26.53
2018-01-15T02:41:12.127Z,24.20
2018-01-15T02:42:17.347Z,28.20
2018-01-15T02:43:21.541Z,27.90
2018-01-15T02:44:25.833Z,26.17
2018-01-15T02:45:31.014Z,24.98
2018-01-15T02:46:35.356Z,26.23
2018-01-15T02:47:39.531Z,27.00
2018-01-15T02:48:44.285Z,30.67
2018-01-15T02:49:48.289Z,27.05
2018-01-15T02:50:54.361Z,26.25
2018-01-15T02:51:58.604Z,27.80
2018-01-15T02:53:02.572Z,31.52
2018-01-15T02:54:06.530Z,24.20
2018-01-15T02:55:10.568Z,26.85
2018-01-15T02:56:15.117Z,27.75
2018-01-15T02:57:19.423Z,26.05
2018-01-15T02:58:24.827Z,24.73
2018-01-15T02:59:29.342Z,24.95
2018-01-15T03:00:34.500Z,27.55
2018-01-15T03:01:42.425Z,29.75
2018-01-15T03:02:46.693Z,27.58
2018-01-15T03:03:50.642Z,26.23
2018-01-15T03:04:54.722Z,25.55
2018-01-15T03:05:58.724Z,28.10
2018-01-15T03:07:02.755Z,30.20
2018-01-15T03:08:07.715Z,29.63
2018-01-15T03:09:12.193Z,25.75
2018-01-15T03:10:16.678Z,26.02
2018-01-15T03:11:21.797Z,25.62
2018-01-15T03:12:26.309Z,28.08
2018-01-15T03:13:31.905Z,27.60
2018-01-15T03:14:36.870Z,30.33
2018-01-15T03:15:42.020Z,28.63
2018-01-15T03:16:46.141Z,23.63
2018-01-15T03:17:50.302Z,30.53
2018-01-15T03:18:55.289Z,27.58
2018-01-15T03:19:59.521Z,27.87
2018-01-15T03:21:04.517Z,28.67
2018-01-15T03:22:08.508Z,27.37
2018-01-15T03:23:12.860Z,28.27
2018-01-15T03:24:17.023Z,26.58
2018-01-15T03:25:21.334Z,30.60
2018-01-15T03:26:25.370Z,28.95
2018-01-15T03:27:30.091Z,30.05
2018-01-15T03:28:34.596Z,27.10
2018-01-15T03:29:39.487Z,26.73
2018-01-15T03:30:43.984Z,24.48
2018-01-15T03:31:48.204Z,32.35
2018-01-15T03:32:52.400Z,28.12
2018-01-15T03:33:57.116Z,26.00
2018-01-15T03:35:01.626Z,28.05
2018-01-15T03:36:06.421Z,31.00
2018-01-15T03:37:10.429Z,25.95
2018-01-15T03:38:14.446Z,32.13
2018-01-15T03:39:19.229Z,29.50
2018-01-15T03:40:23.477Z,31.08
2018-01-15T03:41:27.581Z,27.33
2018-01-15T03:42:31.570Z,26.85
2018-01-15T03:43:35.843Z,25.98
2018-01-15T03:44:41.347Z,29.33
2018-01-15T03:45:45.306Z,27.87
2018-01-15T03:46:49.390Z,26.92
2018-01-15T03:47:53.407Z,25.27
2018-01-15T03:48:57.367Z,29.60
2018-01-15T03:50:02.508Z,28.10
2018-01-15T03:51:07.161Z,25.12
2018-01-15T03:52:11.425Z,27.35
2018-01-15T03:53:16.228Z,25.65
2018-01-15T03:54:21.022Z,28.40
2018-01-15T03:55:25.389Z,30.52
2018-01-15T03:56:29.612Z,28.55
2018-01-15T03:57:33.576Z,27.65
2018-01-15T03:58:37.598Z,30.10
2018-01-15T03:59:42.029Z,27.33
2018-01-15T04:00:46.022Z,27.27
2018-01-15T04:01:50.025Z,26.77
2018-01-15T04:02:54.226Z,31.73
2018-01-15T04:03:58.516Z,29.95
2018-01-15T04:05:02.817Z,31.33
2018-01-15T04:06:06.881Z,37.35
2018-01-15T04:07:10.921Z,27.00
2018-01-15T04:08:15.123Z,25.80
2018-01-15T04:09:20.461Z,30.62
2018-01-15T04:10:24.596Z,30.40
2018-01-15T04:11:29.140Z,30.42
2018-01-15T04:12:33.501Z,27.17
2018-01-15T04:13:37.673Z,31.08
2018-01-15T04:14:41.908Z,27.37
2018-01-15T04:15:46.612Z,30.27
2018-01-15T04:16:51.050Z,30.02
2018-01-15T04:17:56.218Z,30.77
2018-01-15T04:19:00.358Z,27.05
2018-01-15T04:20:04.685Z,28.58
2018-01-15T04:21:08.713Z,30.45
2018-01-15T04:22:12.885Z,28.23
2018-01-15T04:23:17.187Z,29.12
2018-01-15T04:24:21.367Z,27.40
2018-01-15T04:25:25.490Z,31.23
2018-01-15T04:26:29.709Z,31.77
2018-01-15T04:27:33.764Z,24.70
2018-01-15T04:28:37.959Z,29.65
2018-01-15T04:29:42.899Z,28.75
2018-01-15T04:30:47.648Z,26.42
2018-01-15T04:31:52.466Z,26.58
2018-01-15T04:32:56.912Z,27.70
2018-01-15T04:34:01.048Z,25.63
2018-01-15T04:35:05.349Z,27.30
2018-01-15T04:36:09.518Z,26.45
2018-01-15T04:37:15.412Z,25.60
2018-01-15T04:38:19.408Z,27.45
2018-01-15T04:39:24.218Z,31.40
2018-01-15T04:40:28.249Z,25.77
2018-01-15T04:41:33.072Z,31.98
2018-01-15T04:42:37.586Z,25.98
2018-01-15T04:43:42.497Z,28.25
2018-01-15T04:44:47.477Z,26.08
2018-01-15T04:45:52.420Z,30.50
2018-01-15T04:46:56.610Z,30.00
2018-01-15T04:48:01.562Z,27.58
2018-01-15T04:49:05.864Z,25.67
2018-01-15T04:50:10.280Z,31.27
2018-01-15T04:51:14.277Z,31.48
2018-01-15T04:52:18.270Z,30.15
2018-01-15T04:53:22.257Z,30.10
2018-01-15T04:54:27.278Z,30.42
2018-01-15T04:55:31.381Z,30.92
2018-01-15T04:56:36.338Z,31.58
2018-01-15T04:57:40.446Z,31.77
2018-01-15T04:58:44.609Z,27.98
2018-01-15T04:59:48.863Z,32.67
2018-01-15T05:00:53.274Z,29.20
2018-01-15T05:01:57.400Z,32.67
2018-01-15T05:03:01.792Z,30.47
2018-01-15T05:04:05.970Z,32.00
2018-01-15T05:05:10.524Z,30.50
2018-01-15T05:06:14.716Z,33.35
2018-01-15T05:07:18.919Z,30.67
2018-01-15T05:08:23.099Z,28.48
2018-01-15T05:09:27.177Z,34.17
2018-01-15T05:10:31.133Z,30.05
2018-01-15T05:11:35.141Z,42.60
2018-01-15T05:12:40.510Z,29.75
2018-01-15T05:13:44.525Z,28.87
2018-01-15T05:14:48.764Z,30.70
2018-01-15T05:15:52.750Z,29.65
2018-01-15T05:16:56.691Z,30.67
2018-01-15T05:18:01.534Z,29.17
2018-01-15T05:19:05.839Z,31.15
2018-01-15T05:20:10.166Z,31.37
2018-01-15T05:21:14.316Z,36.22
2018-01-15T05:22:19.309Z,30.95
2018-01-15T05:23:23.504Z,28.65
2018-01-15T05:24:27.728Z,35.42
2018-01-15T05:25:32.043Z,31.75
2018-01-15T05:26:36.448Z,33.17
2018-01-15T05:27:40.595Z,30.63
2018-01-15T05:28:44.787Z,28.67
2018-01-15T05:29:49.676Z,33.83
2018-01-15T05:30:54.018Z,31.67
2018-01-15T05:31:58.915Z,32.45
2018-01-15T05:33:03.072Z,33.28
2018-01-15T05:34:07.494Z,34.03
2018-01-15T05:35:11.623Z,44.95
2018-01-15T05:36:15.729Z,51.72
2018-01-15T05:37:21.070Z,43.10
2018-01-15T05:38:25.135Z,34.45
2018-01-15T05:39:29.109Z,29.58
2018-01-15T05:40:33.161Z,33.42
2018-01-15T05:41:37.751Z,34.65
2018-01-15T05:42:41.810Z,31.70
2018-01-15T05:43:45.817Z,29.63
2018-01-15T05:44:49.791Z,35.60
2018-01-15T05:45:54.801Z,34.88
2018-01-15T05:46:59.039Z,35.80
2018-01-15T05:48:03.028Z,33.90
2018-01-15T05:49:07.906Z,38.22
2018-01-15T05:50:11.939Z,33.55
2018-01-15T05:51:16.767Z,30.55
2018-01-15T05:52:21.587Z,34.80
2018-01-15T05:53:26.343Z,32.25
2018-01-15T05:54:30.370Z,29.20
2018-01-15T05:55:34.381Z,33.00
2018-01-15T05:56:38.364Z,31.77
2018-01-15T05:57:42.613Z,32.63
2018-01-15T05:58:48.877Z,36.28
2018-01-15T05:59:53.514Z,32.60
2018-01-15T06:00:57.695Z,29.92
2018-01-15T06:02:01.857Z,36.28
2018-01-15T06:03:06.133Z,31.12
2018-01-15T06:04:10.141Z,35.95
2018-01-15T06:05:14.146Z,30.10
2018-01-15T06:06:18.246Z,33.33
2018-01-15T06:07:22.670Z,34.35
2018-01-15T06:08:26.983Z,32.05
2018-01-15T06:09:31.138Z,30.08
2018-01-15T06:10:35.137Z,32.17
2018-01-15T06:11:39.140Z,35.53
2018-01-15T06:12:43.127Z,32.23
2018-01-15T06:13:47.197Z,31.55
2018-01-15T06:14:51.389Z,35.83
2018-01-15T06:15:55.880Z,33.15
2018-01-15T06:17:00.121Z,35.75
2018-01-15T06:18:05.038Z,34.60
2018-01-15T06:19:09.207Z,35.65
2018-01-15T06:20:13.502Z,31.33
2018-01-15T06:21:17.777Z,34.13
2018-01-15T06:22:22.765Z,35.10
2018-01-15T06:23:26.927Z,31.98
2018-01-15T06:24:31.223Z,36.13
2018-01-15T06:25:35.391Z,36.05
2018-01-15T06:26:39.528Z,32.90
2018-01-15T06:27:43.681Z,33.53
2018-01-15T06:28:47.865Z,30.73
2018-01-15T06:29:52.103Z,35.42
2018-01-15T06:30:57.251Z,32.30
2018-01-15T06:32:02.576Z,34.22
2018-01-15T06:33:09.498Z,39.58
2018-01-15T06:34:16.906Z,35.33
2018-01-15T06:35:21.862Z,35.30
2018-01-15T06:36:27.084Z,35.08
2018-01-15T06:37:31.195Z,31.80
2018-01-15T06:38:35.513Z,31.95
2018-01-15T06:39:39.604Z,34.50
2018-01-15T06:40:43.946Z,33.80
2018-01-15T06:41:48.067Z,30.75
2018-01-15T06:42:52.253Z,35.60
2018-01-15T06:43:56.420Z,35.00
2018-01-15T06:45:00.998Z,35.33
2018-01-15T06:46:05.365Z,34.45
2018-01-15T06:47:09.735Z,32.47
2018-01-15T06:48:14.752Z,37.85
2018-01-15T06:49:19.001Z,36.03
2018-01-15T06:50:24.480Z,39.72
2018-01-15T06:51:28.785Z,34.22
2018-01-15T06:52:33.068Z,36.33
2018-01-15T06:53:37.317Z,35.25
2018-01-15T06:54:42.191Z,35.65
2018-01-15T06:55:47.348Z,40.60
2018-01-15T06:56:51.700Z,36.33
2018-01-15T06:57:55.994Z,31.30
2018-01-15T06:59:00.854Z,32.05
2018-01-15T07:00:05.848Z,29.73
2018-01-15T07:01:10.761Z,31.73
2018-01-15T07:02:15.296Z,31.70
2018-01-15T07:03:19.546Z,32.10
2018-01-15T07:04:24.122Z,37.65
2018-01-15T07:05:29.252Z,37.45
2018-01-15T07:06:34.115Z,39.88
2018-01-15T07:07:38.555Z,30.70
2018-01-15T07:08:43.858Z,39.17
2018-01-15T07:09:48.174Z,34.35
2018-01-15T07:10:53.202Z,33.92
2018-01-15T07:11:57.576Z,33.72
2018-01-15T07:13:01.600Z,33.97
2018-01-15T07:14:06.440Z,34.38
2018-01-15T07:15:10.619Z,38.25
2018-01-15T07:16:14.746Z,33.97
2018-01-15T07:17:18.788Z,32.33
2018-01-15T07:18:23.101Z,34.40
2018-01-15T07:19:27.381Z,35.75
2018-01-15T07:20:31.622Z,34.28
2018-01-15T07:21:36.037Z,36.60
2018-01-15T07:22:40.425Z,39.70
2018-01-15T07:23:44.650Z,36.60
2018-01-15T07:24:48.771Z,37.53
2018-01-15T07:25:53.689Z,32.65
2018-01-15T07:26:58.773Z,31.20
2018-01-15T07:28:03.027Z,33.65
2018-01-15T07:29:07.966Z,33.78
2018-01-15T07:30:12.146Z,34.80
2018-01-15T07:31:16.389Z,34.35
2018-01-15T07:32:20.841Z,33.85
2018-01-15T07:33:24.809Z,34.20
2018-01-15T07:34:28.963Z,34.75
2018-01-15T07:35:33.033Z,35.28
2018-01-15T07:36:37.014Z,34.05
2018-01-15T07:37:40.985Z,37.25
2018-01-15T07:38:45.046Z,35.58
2018-01-15T07:39:49.314Z,37.63
2018-01-15T07:40:53.355Z,36.20
2018-01-15T07:41:57.345Z,32.38
2018-01-15T07:43:01.800Z,38.65
2018-01-15T07:44:06.761Z,34.28
2018-01-15T07:45:11.053Z,33.50
2018-01-15T07:46:15.016Z,35.67
2018-01-15T07:47:20.649Z,35.58
2018-01-15T07:48:24.639Z,37.60
2018-01-15T07:49:28.607Z,35.05
2018-01-15T07:50:32.702Z,37.55
2018-01-15T07:51:36.806Z,39.70
2018-01-15T07:52:40.945Z,41.30
2018-01-15T07:53:45.334Z,33.10
2018-01-15T07:54:50.626Z,31.92
2018-01-15T07:55:55.780Z,34.72
2018-01-15T07:56:59.931Z,35.45
2018-01-15T07:58:05.201Z,33.77
2018-01-15T07:59:09.734Z,34.75
2018-01-15T08:00:13.931Z,31.60
2018-01-15T08:01:18.198Z,36.60
2018-01-15T08:02:23.184Z,35.88
2018-01-15T08:03:27.390Z,38.60
2018-01-15T08:04:31.861Z,30.80
2018-01-15T08:05:35.859Z,36.85
2018-01-15T08:06:39.994Z,33.78
2018-01-15T08:07:44.030Z,33.75
2018-01-15T08:08:48.756Z,37.38
2018-01-15T08:09:52.772Z,35.10
2018-01-15T08:10:57.010Z,34.45
2018-01-15T08:12:01.874Z,32.80
2018-01-15T08:13:06.673Z,38.28
2018-01-15T08:14:10.638Z,32.17
2018-01-15T08:15:14.796Z,39.78
2018-01-15T08:16:19.597Z,34.15
2018-01-15T08:17:23.624Z,36.85
2018-01-15T08:18:27.782Z,31.87
2018-01-15T08:19:31.825Z,36.22
2018-01-15T08:20:36.664Z,32.22
2018-01-15T08:21:40.751Z,36.13
2018-01-15T08:22:45.173Z,36.65
2018-01-15T08:23:49.221Z,38.63
2018-01-15T08:24:53.672Z,34.05
2018-01-15T08:25:57.987Z,34.17
2018-01-15T08:27:02.176Z,39.20
2018-01-15T08:28:06.338Z,37.25
2018-01-15T08:29:10.819Z,32.40
2018-01-15T08:30:15.043Z,34.05
2018-01-15T08:32:48.677Z,35.75
2018-01-15T08:33:53.894Z,35.10
2018-01-15T08:34:58.224Z,32.55
2018-01-15T08:36:03.024Z,33.53
2018-01-15T08:37:07.323Z,37.65
2018-01-15T08:38:11.276Z,33.75
2018-01-15T08:39:15.327Z,38.83
2018-01-15T08:40:19.333Z,42.38
2018-01-15T08:41:23.308Z,38.28
2018-01-15T08:42:28.009Z,36.40
2018-01-15T08:43:31.999Z,34.78
2018-01-15T08:44:36.254Z,38.65
2018-01-15T08:45:40.501Z,34.90
2018-01-15T08:46:44.905Z,37.45
2018-01-15T08:47:49.110Z,37.90
2018-01-15T08:48:53.590Z,31.73
2018-01-15T08:49:57.757Z,34.05
2018-01-15T08:51:01.937Z,39.28
2018-01-15T08:52:06.525Z,39.55
2018-01-15T08:53:12.537Z,36.20
2018-01-15T08:54:17.049Z,35.72
2018-01-15T08:55:21.598Z,42.75
2018-01-15T08:56:26.910Z,34.72
2018-01-15T08:57:31.581Z,32.85
2018-01-15T08:58:35.862Z,36.85
2018-01-15T08:59:40.082Z,31.92
2018-01-15T09:00:44.566Z,34.03
2018-01-15T09:01:49.385Z,30.30
2018-01-15T09:02:54.376Z,36.13
2018-01-15T09:03:58.409Z,35.28
2018-01-15T09:05:03.301Z,37.95
2018-01-15T09:06:07.309Z,34.50
2018-01-15T09:07:12.388Z,33.70
2018-01-15T09:09:35.918Z,32.08
2018-01-15T09:10:41.016Z,33.20
2018-01-15T09:11:45.549Z,33.03
2018-01-15T09:12:50.826Z,32.05
2018-01-15T09:13:55.898Z,39.08
2018-01-15T09:15:00.174Z,32.53
2018-01-15T09:16:04.343Z,32.10
2018-01-15T09:17:08.522Z,34.45
2018-01-15T09:18:13.904Z,36.40
2018-01-15T09:19:18.256Z,32.72
2018-01-15T09:20:23.318Z,39.00
2018-01-15T09:21:28.357Z,33.28
2018-01-15T09:22:32.633Z,30.42
2018-01-15T09:23:37.258Z,34.53
2018-01-15T09:24:42.238Z,30.37
2018-01-15T09:25:46.484Z,32.65
2018-01-15T09:26:51.121Z,31.67
2018-01-15T09:27:55.612Z,36.03
2018-01-15T09:28:59.941Z,31.40
2018-01-15T09:30:05.200Z,31.00
2018-01-15T09:31:09.457Z,32.85
2018-01-15T09:32:13.670Z,33.28
2018-01-15T09:33:17.758Z,36.80
2018-01-15T09:34:22.287Z,34.60
2018-01-15T09:35:26.324Z,32.85
2018-01-15T09:36:30.619Z,33.67
2018-01-15T09:37:35.538Z,34.72
2018-01-15T09:38:39.537Z,39.55
2018-01-15T09:39:43.668Z,38.13
2018-01-15T09:40:48.529Z,33.95
2018-01-15T09:41:52.524Z,40.90
2018-01-15T09:42:56.591Z,30.55
2018-01-15T09:44:01.542Z,35.22
2018-01-15T09:45:06.295Z,36.80
2018-01-15T09:46:10.541Z,33.63
2018-01-15T09:47:15.670Z,29.75
2018-01-15T09:48:21.805Z,39.15
2018-01-15T09:49:25.924Z,36.08
2018-01-15T09:50:31.143Z,31.75
2018-01-15T09:51:35.999Z,36.77
2018-01-15T09:52:40.276Z,34.67
2018-01-15T09:53:45.223Z,35.08
2018-01-15T09:54:49.546Z,33.90
2018-01-15T09:55:53.667Z,30.63
2018-01-15T09:56:57.914Z,33.77
2018-01-15T09:58:02.701Z,34.83
2018-01-15T09:59:06.959Z,33.95
2018-01-15T10:00:11.445Z,34.95
2018-01-15T10:01:17.481Z,40.17
2018-01-15T10:02:22.139Z,34.25
2018-01-15T10:03:26.660Z,29.98
2018-01-15T10:04:30.861Z,33.55
2018-01-15T10:05:35.624Z,32.85
2018-01-15T10:06:40.991Z,33.17
2018-01-15T10:07:46.076Z,32.75
2018-01-15T10:08:50.493Z,33.38
2018-01-15T10:09:56.611Z,34.38
2018-01-15T10:11:01.361Z,35.20
2018-01-15T10:12:05.598Z,37.33
2018-01-15T10:13:09.729Z,32.83
2018-01-15T10:14:13.939Z,33.17
2018-01-15T10:15:18.083Z,50.15
2018-01-15T10:16:22.260Z,58.42
2018-01-15T10:17:26.487Z,40.25
2018-01-15T10:18:30.940Z,36.85
2018-01-15T10:19:35.038Z,34.92
2018-01-15T10:20:39.090Z,42.15
2018-01-15T10:21:43.162Z,39.87
2018-01-15T10:22:47.990Z,40.10
2018-01-15T10:23:52.027Z,36.08
2018-01-15T10:24:56.570Z,35.88
2018-01-15T10:26:00.629Z,39.75
2018-01-15T10:27:04.641Z,40.83
2018-01-15T10:28:08.705Z,39.77
2018-01-15T10:29:12.778Z,31.62
2018-01-15T10:30:16.934Z,33.05
2018-01-15T10:31:20.966Z,31.60
2018-01-15T10:32:26.169Z,33.20
2018-01-15T10:33:30.266Z,42.20
2018-01-15T10:34:35.613Z,32.60
2018-01-15T10:35:40.476Z,35.35
2018-01-15T10:36:44.821Z,31.63
2018-01-15T10:37:48.994Z,33.28
2018-01-15T10:38:54.165Z,32.53
2018-01-15T10:39:58.448Z,30.40
2018-01-15T10:41:02.830Z,32.78
2018-01-15T10:42:07.058Z,34.55
2018-01-15T10:43:11.530Z,35.50
2018-01-15T10:44:17.305Z,27.10
2018-01-15T10:45:22.322Z,37.03
2018-01-15T10:46:26.838Z,32.47
2018-01-15T10:47:31.067Z,34.25
2018-01-15T10:48:35.327Z,36.40
2018-01-15T10:49:39.504Z,36.88
2018-01-15T10:50:44.461Z,32.72
2018-01-15T10:51:48.928Z,35.22
2018-01-15T10:52:54.057Z,33.10
2018-01-15T10:53:58.221Z,34.97
2018-01-15T10:55:02.925Z,33.22
2018-01-15T10:56:07.213Z,31.48
2018-01-15T10:57:11.436Z,33.08
2018-01-15T10:58:15.690Z,31.42
2018-01-15T10:59:19.907Z,33.90
2018-01-15T11:00:29.010Z,37.50
2018-01-15T11:01:33.242Z,32.90
2018-01-15T11:02:38.234Z,32.80
2018-01-15T11:03:42.575Z,32.63
2018-01-15T11:04:47.609Z,32.78
2018-01-15T11:05:52.030Z,31.95
2018-01-15T11:06:56.629Z,31.08
2018-01-15T11:08:00.765Z,35.80
2018-01-15T11:09:05.994Z,37.58
2018-01-15T11:10:10.250Z,49.38
2018-01-15T11:11:15.228Z,34.30
2018-01-15T11:12:19.515Z,31.67
2018-01-15T11:13:23.664Z,30.67
2018-01-15T11:14:27.892Z,30.30
2018-01-15T11:15:32.903Z,28.90
2018-01-15T11:16:37.893Z,33.55
2018-01-15T11:17:43.111Z,31.25
2018-01-15T11:18:48.379Z,31.62
2018-01-15T11:19:52.807Z,30.40
2018-01-15T11:20:57.825Z,32.20
2018-01-15T11:22:02.830Z,29.37
2018-01-15T11:23:07.032Z,30.98
2018-01-15T11:24:14.501Z,39.53
2018-01-15T11:25:18.792Z,28.90
2018-01-15T11:26:24.001Z,37.80
2018-01-15T11:27:28.412Z,30.67
2018-01-15T11:28:32.668Z,35.75
2018-01-15T11:29:36.884Z,30.58
2018-01-15T11:30:41.888Z,35.97
2018-01-15T11:31:46.097Z,37.38
2018-01-15T11:32:50.335Z,32.45
2018-01-15T11:33:55.486Z,34.03
2018-01-15T11:35:00.049Z,33.50
2018-01-15T11:36:04.306Z,27.85
2018-01-15T11:37:08.548Z,36.33
2018-01-15T11:38:12.746Z,33.88
2018-01-15T11:39:16.905Z,31.75
2018-01-15T11:40:21.337Z,33.85
2018-01-15T11:41:26.443Z,28.42
2018-01-15T11:42:30.734Z,33.20
2018-01-15T11:43:35.730Z,28.05
2018-01-15T11:44:40.867Z,32.50
2018-01-15T11:45:45.121Z,30.90
2018-01-15T11:46:49.276Z,38.05
2018-01-15T11:47:53.805Z,31.77
2018-01-15T11:48:59.121Z,35.78
2018-01-15T11:50:04.113Z,38.20
2018-01-15T11:51:08.388Z,40.90
2018-01-15T11:52:12.698Z,38.10
2018-01-15T11:53:16.917Z,38.53
2018-01-15T11:54:21.121Z,47.75
2018-01-15T11:55:25.447Z,41.75
2018-01-15T11:56:30.113Z,30.45
2018-01-15T11:57:35.777Z,36.70
2018-01-15T11:58:40.272Z,39.75
2018-01-15T11:59:44.530Z,36.63
2018-01-15T12:00:48.787Z,35.92
2018-01-15T12:01:53.054Z,34.50
2018-01-15T12:02:57.626Z,45.95
2018-01-15T12:04:01.878Z,50.30
2018-01-15T12:05:06.736Z,30.70
2018-01-15T12:06:11.626Z,38.10
2018-01-15T12:07:16.746Z,31.42
2018-01-15T12:08:21.825Z,36.15
2018-01-15T12:09:25.892Z,30.30
2018-01-15T12:10:30.033Z,26.40
2018-01-15T12:11:34.257Z,31.87
2018-01-15T12:12:38.751Z,31.10
2018-01-15T12:13:43.032Z,35.95
2018-01-15T12:14:48.195Z,34.50
2018-01-15T12:15:52.157Z,32.55
2018-01-15T12:16:56.156Z,30.20
2018-01-15T12:18:00.188Z,37.35
2018-01-15T12:19:04.398Z,30.62
2018-01-15T12:20:08.444Z,39.97
2018-01-15T12:21:13.252Z,33.35
2018-01-15T12:22:27.016Z,30.33
2018-01-15T12:23:31.882Z,29.12
2018-01-15T12:24:36.088Z,33.15
2018-01-15T12:25:40.429Z,33.03
2018-01-15T12:26:45.389Z,34.83
2018-01-15T12:27:50.780Z,29.10
2018-01-15T12:28:56.065Z,31.10
2018-01-15T12:30:02.854Z,43.20
2018-01-15T12:31:08.090Z,40.35
2018-01-15T12:32:13.069Z,34.25
2018-01-15T12:33:17.117Z,30.37
2018-01-15T12:34:21.935Z,29.25
2018-01-15T12:35:26.709Z,30.65
2018-01-15T12:36:30.816Z,26.37
2018-01-15T12:37:35.070Z,28.52
2018-01-15T12:38:39.867Z,29.80
2018-01-15T12:39:44.009Z,28.55
2018-01-15T12:40:48.861Z,27.60
2018-01-15T12:41:52.852Z,26.25
2018-01-15T12:42:57.495Z,27.85
2018-01-15T12:44:01.723Z,26.80
2018-01-15T12:45:06.660Z,29.98
2018-01-15T12:46:11.596Z,30.00
2018-01-15T12:47:15.845Z,30.30
2018-01-15T12:48:20.149Z,30.05
2018-01-15T12:49:24.424Z,22.33
2018-01-15T12:50:28.918Z,24.63
2018-01-15T12:51:33.140Z,25.90
2018-01-15T12:52:37.436Z,24.87
2018-01-15T12:53:41.635Z,25.17
2018-01-15T12:54:45.852Z,22.08
2018-01-15T12:55:50.605Z,22.25
2018-01-15T12:56:55.708Z,20.88
2018-01-15T12:57:59.953Z,23.20
2018-01-15T12:59:04.193Z,20.17
2018-01-15T13:00:08.957Z,22.73
2018-01-15T13:01:13.415Z,23.60
2018-01-15T13:02:17.639Z,19.95
2018-01-15T13:03:22.433Z,20.25
2018-01-15T13:04:27.445Z,19.42
2018-01-15T13:05:41.141Z,23.12
2018-01-15T13:06:54.350Z,21.23
2018-01-15T13:08:18.805Z,18.25
2018-01-15T13:09:23.054Z,24.37
2018-01-15T13:10:28.075Z,22.48
2018-01-15T13:11:34.678Z,19.87
2018-01-15T13:12:38.984Z,21.37
2018-01-15T13:13:43.146Z,24.48
2018-01-15T13:14:47.394Z,21.48
2018-01-15T13:15:51.611Z,22.30
2018-01-15T13:16:55.906Z,25.05
2018-01-15T13:18:01.442Z,22.95
2018-01-15T13:19:05.533Z,22.20
2018-01-15T13:20:10.300Z,21.87
2018-01-15T13:21:14.346Z,24.80
2018-01-15T13:22:19.192Z,20.17
2018-01-15T13:23:23.300Z,22.92
2018-01-15T13:24:27.593Z,19.37
2018-01-15T13:25:31.694Z,21.33
2018-01-15T13:26:35.711Z,22.17
2018-01-15T13:27:39.688Z,24.55
2018-01-15T13:28:44.106Z,19.85
2018-01-15T13:29:48.803Z,20.70
2018-01-15T13:30:53.511Z,21.33
2018-01-15T13:31:58.331Z,22.27
2018-01-15T13:33:03.232Z,25.08
2018-01-15T13:34:07.529Z,21.15
2018-01-15T13:35:11.831Z,18.33
2018-01-15T13:36:16.699Z,19.83
2018-01-15T13:37:21.692Z,19.15
2018-01-15T13:38:26.170Z,20.30
2018-01-15T13:39:30.401Z,18.02
2018-01-15T13:40:34.904Z,16.15
2018-01-15T13:41:39.432Z,15.80
2018-01-15T13:42:43.895Z,12.00
2018-01-15T13:43:48.184Z,12.52
2018-01-15T13:44:52.470Z,12.53
2018-01-15T13:45:56.737Z,15.20
2018-01-15T13:47:00.915Z,12.35
2018-01-15T13:48:05.406Z,10.55
2018-01-15T13:49:10.845Z,10.75
2018-01-15T13:50:16.359Z,8.15
2018-01-15T13:51:23.209Z,10.40
2018-01-15T13:52:27.445Z,10.32
2018-01-15T13:53:32.461Z,8.27